Overseas Boston — WJBU — position and weather

sailwx.info

Track history (hours):
 
Tides and Currents Weather Stations Pressure Air Temp Water Temp Dewpoint Dewpoint Depression Visibility Wind Speed Wind Dir Waves Ship Positions

Overseas Boston

Owner: ASC Leasing VI, Inc., Philadelphia, PA. More information available from US FCC via Universal Licensing System and Coast Guard Vessel Documentation Center.

Last reported at 2017-Jun-27 03:30 UTC. Time now 2017-Jun-27 03:46 UTC.
Position N 48°25' W 125°20'.

Length 183 m; draft 9 m.

Type: Tanker. MMSI: 338221000.

Date/timePositionNaut miles runAvg speedWind from/ knotsBaromVisibWave heightAir tempDewpointWater temp
2017-Jun-27 03:30N 48°25' W 125°20'714.2
2017-Jun-27 03:00N 48°19' W 125°25'714.4
2017-Jun-27 02:30N 48°13' W 125°32'3413.7
2017-Jun-27 00:00N 47°42' W 125°54'4 6.7 300 / 251018.210.8 14.4
2017-Jun-26 23:21N 47°40' W 125°60'613.8
2017-Jun-26 22:53N 47°33' W 126°00'513.9
2017-Jun-26 22:30N 47°28' W 126°00'713.8
2017-Jun-26 22:00N 47°21' W 126°01'713.7
2017-Jun-26 21:30N 47°14' W 126°01'713.6
2017-Jun-26 21:00N 47°08' W 126°01'713.9
2017-Jun-26 20:30N 47°01' W 126°01'714.5
2017-Jun-26 20:00N 46°53' W 126°01'714.4
2017-Jun-26 19:30N 46°46' W 126°02'714.2
2017-Jun-26 19:00N 46°39' W 126°02'714.2
2017-Jun-26 18:30N 46°32' W 126°02'714.2
2017-Jun-26 18:01N 46°25' W 126°02'714.5
2017-Jun-26 17:31N 46°18' W 126°03'714.5
2017-Jun-26 17:00N 46°10' W 126°03'714.7
2017-Jun-26 16:30N 46°03' W 126°02'714.8
2017-Jun-26 16:00N 45°56' W 126°02'714.4
2017-Jun-26 15:30N 45°48' W 126°03'713.9
2017-Jun-26 15:00N 45°41' W 126°02'713.6
2017-Jun-26 14:30N 45°35' W 126°00'1413.7
2017-Jun-26 13:30N 45°21' W 125°59'713.6
2017-Jun-26 13:00N 45°14' W 125°58'714.0
2017-Jun-26 12:30N 45°07' W 125°58'714.3
2017-Jun-26 12:00N 45°00' W 125°58'7407.2
2017-Jun-26 12:00N 44°54' W 125°54'4 7.5 020 / 221016.6 5.4 15.614.613.9
2017-Jun-26 11:30N 44°53' W 125°59'714.2
2017-Jun-26 11:00N 44°46' W 125°59'714.7
2017-Jun-26 10:30N 44°39' W 126°01'714.7
2017-Jun-26 10:00N 44°31' W 126°01'714.4
2017-Jun-26 09:30N 44°24' W 126°00'915.0
2017-Jun-26 08:55N 44°16' W 125°59'1014.7
2017-Jun-26 08:15N 44°06' W 126°00'615.1
2017-Jun-26 07:49N 43°59' W 126°00'715.1
2017-Jun-26 07:20N 43°52' W 126°00'515.1
2017-Jun-26 07:00N 43°47' W 126°00'715.1
2017-Jun-26 06:30N 43°39' W 126°00'1315.1
2017-Jun-26 05:40N 43°27' W 126°00'215.0
2017-Jun-26 05:30N 43°24' W 126°00'2815.2
2017-Jun-26 03:39N 42°56' W 126°00'1415.1
2017-Jun-26 02:42N 42°42' W 126°00'3315.4
2017-Jun-26 00:32N 42°08' W 126°00'015.0
2017-Jun-26 00:30N 42°08' W 126°00'1427.0
2017-Jun-26 00:00N 41°54' W 126°00'320.5 220 / 121016.210.8 15.6
2017-Jun-25 23:49N 41°57' W 125°60'515.2
2017-Jun-25 23:30N 41°53' W 125°59'1014.9
2017-Jun-25 22:50N 41°43' W 125°58'514.9
2017-Jun-25 22:30N 41°38' W 125°58'7416.4
2017-Jun-25 18:00N 40°24' W 125°48'9614.2 250 / 51017.2 5.4 16.014.4
2017-Jun-25 11:13N 38°51' W 125°18'2014.9
2017-Jun-25 09:53N 38°32' W 125°10'714.1
2017-Jun-25 09:25N 38°26' W 125°06'613.5
2017-Jun-25 09:00N 38°21' W 125°02'713.6
2017-Jun-25 08:30N 38°16' W 124°57'714.6
2017-Jun-25 08:00N 38°09' W 124°53'714.5
2017-Jun-25 07:30N 38°03' W 124°48'715.0
2017-Jun-25 07:01N 37°57' W 124°43'815.4
2017-Jun-25 06:30N 37°50' W 124°38'815.5
2017-Jun-25 06:00N 37°43' W 124°33'815.4
2017-Jun-25 05:30N 37°37' W 124°28'714.8
2017-Jun-25 05:00N 37°36' W 124°19'815.8
2017-Jun-25 04:30N 37°35' W 124°09'815.6
2017-Jun-25 04:00N 37°35' W 123°59'815.4
2017-Jun-25 03:31N 37°35' W 123°49'815.5
2017-Jun-25 03:00N 37°35' W 123°39'714.9
2017-Jun-25 02:31N 37°35' W 123°30'714.5
2017-Jun-25 02:00N 37°34' W 123°21'714.4
2017-Jun-25 01:30N 37°34' W 123°12'612.7
2017-Jun-25 01:00N 37°34' W 123°04'5 9.7
2017-Jun-25 00:31N 37°37' W 122°59'5 9.7
2017-Jun-25 00:00N 37°40' W 122°54'5 9.7
2017-Jun-24 23:30N 37°42' W 122°49'5 9.6
2017-Jun-24 23:00N 37°45' W 122°43'5 9.2
2017-Jun-24 22:30N 37°46' W 122°38'713.8
2017-Jun-24 22:00N 37°49' W 122°30'5 9.6
2017-Jun-24 21:30N 37°52' W 122°25'510.0
2017-Jun-24 21:00N 37°56' W 122°27'5 9.4
2017-Jun-24 20:30N 38°01' W 122°24'5 9.2
2017-Jun-24 20:00N 38°03' W 122°19'4 8.7
2017-Jun-24 19:30N 38°04' W 122°14'4 7.8
2017-Jun-24 18:58N 38°02' W 122°09'3 6.5
2017-Jun-24 18:30N 38°03' W 122°05'0 0.0
2017-Jun-23 21:00N 38°03' W 122°05'4 4.3
2017-Jun-23 20:01N 38°03' W 122°11'010.7
2017-Jun-23 19:59N 38°03' W 122°11'511.4
2017-Jun-23 19:30N 38°03' W 122°18'4 8.9
2017-Jun-23 19:00N 38°01' W 122°23'3 5.1
2017-Jun-23 18:30N 37°60' W 122°25'3 5.4
2017-Jun-23 18:00N 37°57' W 122°27'3 5.1
2017-Jun-23 17:30N 37°55' W 122°27'3 5.7
2017-Jun-23 17:00N 37°52' W 122°25'3 5.3
2017-Jun-23 16:30N 37°50' W 122°27'714.1
2017-Jun-23 16:00N 37°47' W 122°35'611.4
2017-Jun-23 15:30N 37°44' W 122°41'4 8.2
2017-Jun-23 15:00N 37°41' W 122°45'9 9.1
2017-Jun-23 14:01N 37°36' W 122°55'3 6.8
2017-Jun-23 13:30N 37°34' W 122°59'4 8.6
2017-Jun-23 13:00N 37°32' W 123°03'4 8.4
2017-Jun-23 12:31N 37°33' W 123°09'4 8.4
2017-Jun-23 12:01N 37°33' W 123°14'3 6.4
2017-Jun-23 11:29N 37°33' W 123°18'4 8.7
2017-Jun-23 11:01N 37°33' W 123°23'4 9.0
2017-Jun-23 10:31N 37°33' W 123°29'4 8.6
2017-Jun-23 10:00N 37°34' W 123°34'4 8.9
2017-Jun-23 09:30N 37°34' W 123°40'4 8.7
2017-Jun-23 09:01N 37°34' W 123°45'4 8.3
2017-Jun-23 08:31N 37°34' W 123°51'4 8.4
2017-Jun-23 08:01N 37°35' W 123°56'4 8.2
2017-Jun-23 07:30N 37°35' W 124°01'4 8.2
2017-Jun-23 07:01N 37°35' W 124°06'4 8.5
2017-Jun-23 06:30N 37°35' W 124°12'4 8.4
2017-Jun-23 06:01N 37°35' W 124°17'4 8.3
2017-Jun-23 05:30N 37°36' W 124°22'4 7.9
2017-Jun-23 05:00N 37°36' W 124°27'4 8.4
2017-Jun-23 04:31N 37°40' W 124°30'4 8.4
2017-Jun-23 04:01N 37°43' W 124°33'4 8.6
2017-Jun-23 03:31N 37°47' W 124°36'4 8.7
2017-Jun-23 03:00N 37°51' W 124°38'3 5.6
2017-Jun-23 02:30N 37°53' W 124°40'5 9.0
2017-Jun-23 01:58N 37°57' W 124°43'5 9.6
2017-Jun-23 01:25N 38°02' W 124°47'4 9.4
2017-Jun-23 01:00N 38°05' W 124°49'5 9.4
2017-Jun-23 00:31N 38°09' W 124°53'3 6.1
2017-Jun-23 00:00N 38°12' W 124°54'250.1 010 / 251009.3 5.4 15.0
2017-Jun-22 23:57N 38°14' W 124°56'4 9.4
2017-Jun-22 23:30N 38°17' W 124°59'47 8.6
2017-Jun-22 18:00N 39°00' W 125°24'3010.1 360 / 391010.0 5.4 17.013.7
2017-Jun-22 15:00N 39°30' W 125°30'15810.5 010 / 461011.4 5.4 16.115.314.7
2017-Jun-22 00:00N 42°06' W 126°00'6611.0 010 / 401022.1 5.4 14.4
2017-Jun-21 18:00N 43°12' W 126°00'712.9 020 / 401027.410.8 16.011.8
2017-Jun-21 17:25N 43°19' W 126°00'5910.8
2017-Jun-21 12:00N 44°18' W 126°00'5911.0 010 / 281029.010.8 13.312.814.0
2017-Jun-21 06:40N 45°17' W 126°00'511.3
2017-Jun-21 06:13N 45°22' W 126°00'211.3
2017-Jun-21 06:00N 45°24' W 126°00'5410.8
2017-Jun-21 00:58N 46°19' W 126°00'1111.7
2017-Jun-21 00:00N 46°30' W 126°00'2 7.7 330 / 201027.310.8 15.6
2017-Jun-20 23:44N 46°32' W 126°00'210.7
2017-Jun-20 23:31N 46°34' W 126°00'510.7
2017-Jun-20 23:00N 46°40' W 126°00'511.0
2017-Jun-20 22:30N 46°45' W 126°00'611.8
2017-Jun-20 22:00N 46°51' W 126°00'714.7
2017-Jun-20 21:31N 46°58' W 126°00'815.7
2017-Jun-20 21:01N 47°06' W 126°00'815.3
2017-Jun-20 20:29N 47°14' W 126°00'715.2
2017-Jun-20 20:00N 47°22' W 126°00'915.7
2017-Jun-20 19:27N 47°30' W 126°00'915.9
2017-Jun-20 18:54N 47°39' W 126°00'716.1
2017-Jun-20 18:29N 47°46' W 126°00'2915.3
2017-Jun-20 16:34N 48°15' W 125°54'314.7
2017-Jun-20 16:22N 48°16' W 125°50'514.9
2017-Jun-20 16:00N 48°20' W 125°44'714.4
2017-Jun-20 15:30N 48°25' W 125°36'714.9
2017-Jun-20 15:01N 48°29' W 125°27'1514.5
2017-Jun-20 14:00N 48°31' W 125°05'715.0
2017-Jun-20 13:31N 48°31' W 124°54'714.7
2017-Jun-20 13:00N 48°30' W 124°43'816.9
2017-Jun-20 12:30N 48°27' W 124°31'917.7
2017-Jun-20 12:01N 48°24' W 124°19'917.3
2017-Jun-20 11:30N 48°20' W 124°07'816.7
2017-Jun-20 11:00N 48°17' W 123°55'816.5
2017-Jun-20 10:30N 48°16' W 123°42'715.3
2017-Jun-20 10:00N 48°15' W 123°31'713.8
2017-Jun-20 09:30N 48°10' W 123°24'4 8.1
2017-Jun-20 09:00N 48°11' W 123°18'714.4
2017-Jun-20 08:30N 48°15' W 123°09'613.0
2017-Jun-20 08:00N 48°19' W 123°01'612.4
2017-Jun-20 07:30N 48°22' W 122°53'611.2
2017-Jun-20 07:00N 48°26' W 122°47'5 9.1
2017-Jun-20 06:30N 48°30' W 122°43'4 7.7
2017-Jun-20 06:00N 48°31' W 122°38'2 4.8
2017-Jun-20 05:30N 48°31' W 122°35'0 0.4
2017-Jun-20 04:57N 48°30' W 122°34'0 0.0
2017-Jun-20 04:27N 48°30' W 122°34'0 0.0
2017-Jun-20 03:57N 48°30' W 122°34'0 0.0
2017-Jun-20 03:27N 48°30' W 122°34'0 0.0
2017-Jun-20 02:57N 48°30' W 122°34'0 0.0
2017-Jun-20 02:21N 48°30' W 122°34'0 0.0
2017-Jun-20 01:57N 48°30' W 122°34'0 0.1
2017-Jun-20 01:27N 48°30' W 122°34'0 0.1
2017-Jun-20 00:57N 48°30' W 122°34'0 0.0
2017-Jun-20 00:27N 48°30' W 122°34'0 0.0
2017-Jun-19 23:45N 48°30' W 122°34'0 0.0
2017-Jun-19 23:27N 48°30' W 122°34'0 0.0
2017-Jun-19 22:57N 48°30' W 122°34'0 0.0
2017-Jun-19 22:09N 48°30' W 122°34'0 0.0
2017-Jun-19 21:57N 48°30' W 122°34'0 0.0
2017-Jun-19 21:27N 48°30' W 122°34'0 0.0
2017-Jun-19 20:57N 48°30' W 122°34'0 0.0
2017-Jun-19 20:27N 48°30' W 122°34'0 0.0
2017-Jun-19 19:57N 48°30' W 122°34'0 0.0
2017-Jun-19 19:27N 48°30' W 122°34'0 0.0
2017-Jun-19 18:45N 48°30' W 122°34'0 0.0
2017-Jun-19 18:27N 48°30' W 122°34'0 0.0
2017-Jun-19 17:57N 48°30' W 122°34'0 0.0
2017-Jun-19 17:27N 48°30' W 122°34'0 0.0
2017-Jun-19 16:57N 48°30' W 122°34'0 0.0
2017-Jun-19 16:27N 48°30' W 122°34'0 0.0
2017-Jun-19 15:57N 48°30' W 122°34'0 0.0
2017-Jun-19 15:27N 48°30' W 122°34'0 0.0
2017-Jun-19 14:57N 48°30' W 122°34'0 0.0
2017-Jun-19 14:27N 48°30' W 122°34'0 0.0
2017-Jun-19 13:27N 48°30' W 122°34'0 0.0
2017-Jun-19 12:51N 48°30' W 122°34'0 0.0
2017-Jun-19 12:27N 48°30' W 122°34'0 0.0
2017-Jun-19 11:57N 48°30' W 122°34'0 0.0
2017-Jun-19 11:27N 48°30' W 122°34'0 0.0
2017-Jun-19 10:57N 48°30' W 122°34'0 0.0
2017-Jun-19 10:27N 48°30' W 122°34'0 0.0
2017-Jun-19 09:57N 48°30' W 122°34'0 0.0
2017-Jun-19 09:27N 48°30' W 122°34'0 0.0
2017-Jun-19 08:57N 48°30' W 122°34'0 0.0
2017-Jun-19 08:27N 48°30' W 122°34'0 0.0
2017-Jun-19 07:51N 48°30' W 122°34'0 0.0
2017-Jun-19 07:27N 48°30' W 122°34'0 0.0
2017-Jun-19 06:51N 48°30' W 122°34'0 0.0
2017-Jun-19 06:27N 48°30' W 122°34'0 0.0
2017-Jun-19 05:57N 48°30' W 122°34'0 0.0
2017-Jun-19 05:27N 48°30' W 122°34'0 0.0
2017-Jun-19 04:57N 48°30' W 122°34'0 0.0
2017-Jun-19 04:21N 48°30' W 122°34'0 0.0
2017-Jun-19 03:57N 48°30' W 122°34'0 0.0
2017-Jun-19 03:27N 48°30' W 122°34'0 0.0
2017-Jun-19 02:51N 48°30' W 122°34'0 0.0
2017-Jun-19 02:27N 48°30' W 122°34'0 0.0
2017-Jun-19 01:57N 48°30' W 122°34'0 0.1
2017-Jun-19 01:15N 48°30' W 122°34'0 0.1
2017-Jun-19 00:57N 48°30' W 122°34'0 0.0
2017-Jun-19 00:21N 48°30' W 122°34'0 0.0
2017-Jun-18 23:57N 48°30' W 122°34'0 0.0
2017-Jun-18 23:27N 48°30' W 122°34'0 0.0
2017-Jun-18 22:57N 48°30' W 122°34'0 0.0
2017-Jun-18 22:27N 48°30' W 122°34'0 0.0
2017-Jun-18 21:57N 48°30' W 122°34'0 0.0
2017-Jun-18 21:27N 48°30' W 122°34'0 0.0
2017-Jun-18 20:57N 48°30' W 122°34'0 0.0
2017-Jun-18 20:27N 48°30' W 122°34'0 0.0
2017-Jun-18 19:57N 48°30' W 122°34'0 0.1
2017-Jun-18 19:27N 48°30' W 122°34'0 0.1
2017-Jun-18 18:57N 48°30' W 122°34'0 0.0
2017-Jun-18 18:27N 48°30' W 122°34'0 0.0
2017-Jun-18 17:57N 48°30' W 122°34'0 0.0
2017-Jun-18 17:27N 48°30' W 122°34'0 0.0
2017-Jun-18 16:57N 48°30' W 122°34'0 0.0
2017-Jun-18 16:27N 48°30' W 122°34'0 0.0
2017-Jun-18 15:57N 48°30' W 122°34'0 0.0
2017-Jun-18 15:27N 48°30' W 122°34'0 0.0
2017-Jun-18 14:51N 48°30' W 122°34'0 0.0
2017-Jun-18 13:57N 48°30' W 122°34'0 0.0
2017-Jun-18 13:27N 48°30' W 122°34'0 0.0
2017-Jun-18 12:57N 48°30' W 122°34'0 0.0
2017-Jun-18 12:27N 48°30' W 122°34'0 0.0
2017-Jun-18 11:57N 48°30' W 122°34'0 0.0
2017-Jun-18 11:15N 48°30' W 122°34'0 0.0
2017-Jun-18 10:57N 48°30' W 122°34'0 0.0
2017-Jun-18 10:27N 48°30' W 122°34'0 0.0
2017-Jun-18 09:57N 48°30' W 122°34'0 0.0
2017-Jun-18 09:21N 48°30' W 122°34'0 0.0
2017-Jun-18 08:57N 48°30' W 122°34'0 0.0
2017-Jun-18 08:27N 48°30' W 122°34'0 0.0
2017-Jun-18 07:57N 48°30' W 122°34'0 0.0
2017-Jun-18 07:27N 48°30' W 122°34'0 0.0
2017-Jun-18 06:57N 48°30' W 122°34'0 0.0
2017-Jun-18 06:27N 48°30' W 122°34'0 0.0
2017-Jun-18 05:51N 48°30' W 122°34'0 0.0
2017-Jun-18 05:27N 48°30' W 122°34'0 0.0
2017-Jun-18 04:57N 48°30' W 122°34'0 0.0
2017-Jun-18 04:27N 48°30' W 122°34'0 0.0
2017-Jun-18 03:57N 48°30' W 122°34'0 0.0
2017-Jun-18 03:21N 48°30' W 122°34'0 0.0
2017-Jun-18 02:57N 48°30' W 122°34'0 0.0
2017-Jun-18 02:15N 48°30' W 122°34'0 0.0
2017-Jun-18 01:57N 48°30' W 122°34'0 0.0
2017-Jun-18 01:27N 48°30' W 122°34'0 0.0
2017-Jun-18 00:57N 48°30' W 122°34'0 0.0
2017-Jun-18 00:27N 48°30' W 122°34'0 0.0
2017-Jun-17 23:57N 48°30' W 122°34'0 0.0
2017-Jun-17 23:27N 48°30' W 122°34'0 0.0
2017-Jun-17 22:57N 48°30' W 122°34'0 0.1
2017-Jun-17 22:27N 48°30' W 122°34'0 0.1
2017-Jun-17 21:51N 48°30' W 122°34'0 0.0
2017-Jun-17 21:27N 48°30' W 122°34'0 0.0
2017-Jun-17 20:57N 48°30' W 122°34'0 0.0
2017-Jun-17 20:27N 48°30' W 122°34'0 0.0
2017-Jun-17 19:57N 48°30' W 122°34'0 0.0
2017-Jun-17 19:27N 48°30' W 122°34'0 0.0
2017-Jun-17 18:51N 48°30' W 122°34'0 0.0
2017-Jun-17 18:27N 48°30' W 122°34'0 0.0
2017-Jun-17 17:57N 48°30' W 122°34'0 0.0
2017-Jun-17 17:27N 48°30' W 122°34'0 0.1
2017-Jun-17 16:57N 48°30' W 122°34'0 0.1
2017-Jun-17 16:27N 48°30' W 122°34'0 0.0
2017-Jun-17 15:57N 48°30' W 122°34'0 0.0
2017-Jun-17 15:30N 48°30' W 122°34'1 1.5
2017-Jun-17 15:00N 48°31' W 122°35'4 7.2
2017-Jun-17 14:30N 48°31' W 122°41'10 9.6
2017-Jun-17 13:30N 48°23' W 122°49'612.7
2017-Jun-17 13:00N 48°20' W 122°57'612.2
2017-Jun-17 12:29N 48°17' W 123°05'612.9
2017-Jun-17 12:00N 48°14' W 123°13'611.8
2017-Jun-17 11:30N 48°11' W 123°21'4 8.1
2017-Jun-17 11:00N 48°11' W 123°27'4 8.5
2017-Jun-17 10:30N 48°13' W 123°33'4 8.7
2017-Jun-17 10:00N 48°13' W 123°39'4 8.8
2017-Jun-17 09:31N 48°13' W 123°46'5 9.4
2017-Jun-17 09:00N 48°13' W 123°53'5 9.1
2017-Jun-17 08:30N 48°15' W 123°60'5 9.3
2017-Jun-17 08:00N 48°17' W 124°06'5 9.4
2017-Jun-17 07:30N 48°19' W 124°12'5 9.1
2017-Jun-17 07:00N 48°21' W 124°18'4 8.1
2017-Jun-17 06:30N 48°22' W 124°24'3 6.0
2017-Jun-17 06:01N 48°23' W 124°28'3 6.9
2017-Jun-17 05:30N 48°25' W 124°33'4 7.2
2017-Jun-17 05:00N 48°26' W 124°38'3 6.4
2017-Jun-17 04:30N 48°28' W 124°42'3 6.2
2017-Jun-17 04:01N 48°29' W 124°47'3 6.2
2017-Jun-17 03:30N 48°29' W 124°51'  
Track history (hours):
 
Tides and Currents Weather Stations Pressure Air Temp Water Temp Dewpoint Dewpoint Depression Visibility Wind Speed Wind Dir Waves Ship Positions

Overseas Boston

Owner: ASC Leasing VI, Inc., Philadelphia, PA. More information available from US FCC via Universal Licensing System and Coast Guard Vessel Documentation Center.

Last reported at 2017-Jun-27 03:30 UTC. Time now 2017-Jun-27 03:46 UTC.
Position N 48°25' W 125°20'.

Length 183 m; draft 9 m.

Type: Tanker. MMSI: 338221000.

Date/timePositionNaut miles runAvg speedWind from/ knotsBaromVisibWave heightAir tempDewpointWater temp
2017-Jun-27 03:30N 48°25' W 125°20'714.2
2017-Jun-27 03:00N 48°19' W 125°25'714.4
2017-Jun-27 02:30N 48°13' W 125°32'3413.7
2017-Jun-27 00:00N 47°42' W 125°54'4 6.7 300 / 251018.210.8 14.4
2017-Jun-26 23:21N 47°40' W 125°60'613.8
2017-Jun-26 22:53N 47°33' W 126°00'513.9
2017-Jun-26 22:30N 47°28' W 126°00'713.8
2017-Jun-26 22:00N 47°21' W 126°01'713.7
2017-Jun-26 21:30N 47°14' W 126°01'713.6
2017-Jun-26 21:00N 47°08' W 126°01'713.9
2017-Jun-26 20:30N 47°01' W 126°01'714.5
2017-Jun-26 20:00N 46°53' W 126°01'714.4
2017-Jun-26 19:30N 46°46' W 126°02'714.2
2017-Jun-26 19:00N 46°39' W 126°02'714.2
2017-Jun-26 18:30N 46°32' W 126°02'714.2
2017-Jun-26 18:01N 46°25' W 126°02'714.5
2017-Jun-26 17:31N 46°18' W 126°03'714.5
2017-Jun-26 17:00N 46°10' W 126°03'714.7
2017-Jun-26 16:30N 46°03' W 126°02'714.8
2017-Jun-26 16:00N 45°56' W 126°02'714.4
2017-Jun-26 15:30N 45°48' W 126°03'713.9
2017-Jun-26 15:00N 45°41' W 126°02'713.6
2017-Jun-26 14:30N 45°35' W 126°00'1413.7
2017-Jun-26 13:30N 45°21' W 125°59'713.6
2017-Jun-26 13:00N 45°14' W 125°58'714.0
2017-Jun-26 12:30N 45°07' W 125°58'714.3
2017-Jun-26 12:00N 45°00' W 125°58'7407.2
2017-Jun-26 12:00N 44°54' W 125°54'4 7.5 020 / 221016.6 5.4 15.614.613.9
2017-Jun-26 11:30N 44°53' W 125°59'714.2
2017-Jun-26 11:00N 44°46' W 125°59'714.7
2017-Jun-26 10:30N 44°39' W 126°01'714.7
2017-Jun-26 10:00N 44°31' W 126°01'714.4
2017-Jun-26 09:30N 44°24' W 126°00'915.0
2017-Jun-26 08:55N 44°16' W 125°59'1014.7
2017-Jun-26 08:15N 44°06' W 126°00'615.1
2017-Jun-26 07:49N 43°59' W 126°00'715.1
2017-Jun-26 07:20N 43°52' W 126°00'515.1
2017-Jun-26 07:00N 43°47' W 126°00'715.1
2017-Jun-26 06:30N 43°39' W 126°00'1315.1
2017-Jun-26 05:40N 43°27' W 126°00'215.0
2017-Jun-26 05:30N 43°24' W 126°00'2815.2
2017-Jun-26 03:39N 42°56' W 126°00'1415.1
2017-Jun-26 02:42N 42°42' W 126°00'3315.4
2017-Jun-26 00:32N 42°08' W 126°00'015.0
2017-Jun-26 00:30N 42°08' W 126°00'1427.0
2017-Jun-26 00:00N 41°54' W 126°00'320.5 220 / 121016.210.8 15.6
2017-Jun-25 23:49N 41°57' W 125°60'515.2
2017-Jun-25 23:30N 41°53' W 125°59'1014.9
2017-Jun-25 22:50N 41°43' W 125°58'514.9
2017-Jun-25 22:30N 41°38' W 125°58'7416.4
2017-Jun-25 18:00N 40°24' W 125°48'9614.2 250 / 51017.2 5.4 16.014.4
2017-Jun-25 11:13N 38°51' W 125°18'2014.9
2017-Jun-25 09:53N 38°32' W 125°10'714.1
2017-Jun-25 09:25N 38°26' W 125°06'613.5
2017-Jun-25 09:00N 38°21' W 125°02'713.6
2017-Jun-25 08:30N 38°16' W 124°57'714.6
2017-Jun-25 08:00N 38°09' W 124°53'714.5
2017-Jun-25 07:30N 38°03' W 124°48'715.0
2017-Jun-25 07:01N 37°57' W 124°43'815.4
2017-Jun-25 06:30N 37°50' W 124°38'815.5
2017-Jun-25 06:00N 37°43' W 124°33'815.4
2017-Jun-25 05:30N 37°37' W 124°28'714.8
2017-Jun-25 05:00N 37°36' W 124°19'815.8
2017-Jun-25 04:30N 37°35' W 124°09'815.6
2017-Jun-25 04:00N 37°35' W 123°59'815.4
2017-Jun-25 03:31N 37°35' W 123°49'815.5
2017-Jun-25 03:00N 37°35' W 123°39'714.9
2017-Jun-25 02:31N 37°35' W 123°30'714.5
2017-Jun-25 02:00N 37°34' W 123°21'714.4
2017-Jun-25 01:30N 37°34' W 123°12'612.7
2017-Jun-25 01:00N 37°34' W 123°04'5 9.7
2017-Jun-25 00:31N 37°37' W 122°59'5 9.7
2017-Jun-25 00:00N 37°40' W 122°54'5 9.7
2017-Jun-24 23:30N 37°42' W 122°49'5 9.6
2017-Jun-24 23:00N 37°45' W 122°43'5 9.2
2017-Jun-24 22:30N 37°46' W 122°38'713.8
2017-Jun-24 22:00N 37°49' W 122°30'5 9.6
2017-Jun-24 21:30N 37°52' W 122°25'510.0
2017-Jun-24 21:00N 37°56' W 122°27'5 9.4
2017-Jun-24 20:30N 38°01' W 122°24'5 9.2
2017-Jun-24 20:00N 38°03' W 122°19'4 8.7
2017-Jun-24 19:30N 38°04' W 122°14'4 7.8
2017-Jun-24 18:58N 38°02' W 122°09'3 6.5
2017-Jun-24 18:30N 38°03' W 122°05'0 0.0
2017-Jun-23 21:00N 38°03' W 122°05'4 4.3
2017-Jun-23 20:01N 38°03' W 122°11'010.7
2017-Jun-23 19:59N 38°03' W 122°11'511.4
2017-Jun-23 19:30N 38°03' W 122°18'4 8.9
2017-Jun-23 19:00N 38°01' W 122°23'3 5.1
2017-Jun-23 18:30N 37°60' W 122°25'3 5.4
2017-Jun-23 18:00N 37°57' W 122°27'3 5.1
2017-Jun-23 17:30N 37°55' W 122°27'3 5.7
2017-Jun-23 17:00N 37°52' W 122°25'3 5.3
2017-Jun-23 16:30N 37°50' W 122°27'714.1
2017-Jun-23 16:00N 37°47' W 122°35'611.4
2017-Jun-23 15:30N 37°44' W 122°41'4 8.2
2017-Jun-23 15:00N 37°41' W 122°45'9 9.1
2017-Jun-23 14:01N 37°36' W 122°55'3 6.8
2017-Jun-23 13:30N 37°34' W 122°59'4 8.6
2017-Jun-23 13:00N 37°32' W 123°03'4 8.4
2017-Jun-23 12:31N 37°33' W 123°09'4 8.4
2017-Jun-23 12:01N 37°33' W 123°14'3 6.4
2017-Jun-23 11:29N 37°33' W 123°18'4 8.7
2017-Jun-23 11:01N 37°33' W 123°23'4 9.0
2017-Jun-23 10:31N 37°33' W 123°29'4 8.6
2017-Jun-23 10:00N 37°34' W 123°34'4 8.9
2017-Jun-23 09:30N 37°34' W 123°40'4 8.7
2017-Jun-23 09:01N 37°34' W 123°45'4 8.3
2017-Jun-23 08:31N 37°34' W 123°51'4 8.4
2017-Jun-23 08:01N 37°35' W 123°56'4 8.2
2017-Jun-23 07:30N 37°35' W 124°01'4 8.2
2017-Jun-23 07:01N 37°35' W 124°06'4 8.5
2017-Jun-23 06:30N 37°35' W 124°12'4 8.4
2017-Jun-23 06:01N 37°35' W 124°17'4 8.3
2017-Jun-23 05:30N 37°36' W 124°22'4 7.9
2017-Jun-23 05:00N 37°36' W 124°27'4 8.4
2017-Jun-23 04:31N 37°40' W 124°30'4 8.4
2017-Jun-23 04:01N 37°43' W 124°33'4 8.6
2017-Jun-23 03:31N 37°47' W 124°36'4 8.7
2017-Jun-23 03:00N 37°51' W 124°38'3 5.6
2017-Jun-23 02:30N 37°53' W 124°40'5 9.0
2017-Jun-23 01:58N 37°57' W 124°43'5 9.6
2017-Jun-23 01:25N 38°02' W 124°47'4 9.4
2017-Jun-23 01:00N 38°05' W 124°49'5 9.4
2017-Jun-23 00:31N 38°09' W 124°53'3 6.1
2017-Jun-23 00:00N 38°12' W 124°54'250.1 010 / 251009.3 5.4 15.0
2017-Jun-22 23:57N 38°14' W 124°56'4 9.4
2017-Jun-22 23:30N 38°17' W 124°59'47 8.6
2017-Jun-22 18:00N 39°00' W 125°24'3010.1 360 / 391010.0 5.4 17.013.7
2017-Jun-22 15:00N 39°30' W 125°30'15810.5 010 / 461011.4 5.4 16.115.314.7
2017-Jun-22 00:00N 42°06' W 126°00'6611.0 010 / 401022.1 5.4 14.4
2017-Jun-21 18:00N 43°12' W 126°00'712.9 020 / 401027.410.8 16.011.8
2017-Jun-21 17:25N 43°19' W 126°00'5910.8
2017-Jun-21 12:00N 44°18' W 126°00'5911.0 010 / 281029.010.8 13.312.814.0
2017-Jun-21 06:40N 45°17' W 126°00'511.3
2017-Jun-21 06:13N 45°22' W 126°00'211.3
2017-Jun-21 06:00N 45°24' W 126°00'5410.8
2017-Jun-21 00:58N 46°19' W 126°00'1111.7
2017-Jun-21 00:00N 46°30' W 126°00'2 7.7 330 / 201027.310.8 15.6
2017-Jun-20 23:44N 46°32' W 126°00'210.7
2017-Jun-20 23:31N 46°34' W 126°00'510.7
2017-Jun-20 23:00N 46°40' W 126°00'511.0
2017-Jun-20 22:30N 46°45' W 126°00'611.8
2017-Jun-20 22:00N 46°51' W 126°00'714.7
2017-Jun-20 21:31N 46°58' W 126°00'815.7
2017-Jun-20 21:01N 47°06' W 126°00'815.3
2017-Jun-20 20:29N 47°14' W 126°00'715.2
2017-Jun-20 20:00N 47°22' W 126°00'915.7
2017-Jun-20 19:27N 47°30' W 126°00'915.9
2017-Jun-20 18:54N 47°39' W 126°00'716.1
2017-Jun-20 18:29N 47°46' W 126°00'2915.3
2017-Jun-20 16:34N 48°15' W 125°54'314.7
2017-Jun-20 16:22N 48°16' W 125°50'514.9
2017-Jun-20 16:00N 48°20' W 125°44'714.4
2017-Jun-20 15:30N 48°25' W 125°36'714.9
2017-Jun-20 15:01N 48°29' W 125°27'1514.5
2017-Jun-20 14:00N 48°31' W 125°05'715.0
2017-Jun-20 13:31N 48°31' W 124°54'714.7
2017-Jun-20 13:00N 48°30' W 124°43'816.9
2017-Jun-20 12:30N 48°27' W 124°31'917.7
2017-Jun-20 12:01N 48°24' W 124°19'917.3
2017-Jun-20 11:30N 48°20' W 124°07'816.7
2017-Jun-20 11:00N 48°17' W 123°55'816.5
2017-Jun-20 10:30N 48°16' W 123°42'715.3
2017-Jun-20 10:00N 48°15' W 123°31'713.8
2017-Jun-20 09:30N 48°10' W 123°24'4 8.1
2017-Jun-20 09:00N 48°11' W 123°18'714.4
2017-Jun-20 08:30N 48°15' W 123°09'613.0
2017-Jun-20 08:00N 48°19' W 123°01'612.4
2017-Jun-20 07:30N 48°22' W 122°53'611.2
2017-Jun-20 07:00N 48°26' W 122°47'5 9.1
2017-Jun-20 06:30N 48°30' W 122°43'4 7.7
2017-Jun-20 06:00N 48°31' W 122°38'2 4.8
2017-Jun-20 05:30N 48°31' W 122°35'0 0.4
2017-Jun-20 04:57N 48°30' W 122°34'0 0.0
2017-Jun-20 04:27N 48°30' W 122°34'0 0.0
2017-Jun-20 03:57N 48°30' W 122°34'0 0.0
2017-Jun-20 03:27N 48°30' W 122°34'0 0.0
2017-Jun-20 02:57N 48°30' W 122°34'0 0.0
2017-Jun-20 02:21N 48°30' W 122°34'0 0.0
2017-Jun-20 01:57N 48°30' W 122°34'0 0.1
2017-Jun-20 01:27N 48°30' W 122°34'0 0.1
2017-Jun-20 00:57N 48°30' W 122°34'0 0.0
2017-Jun-20 00:27N 48°30' W 122°34'0 0.0
2017-Jun-19 23:45N 48°30' W 122°34'0 0.0
2017-Jun-19 23:27N 48°30' W 122°34'0 0.0
2017-Jun-19 22:57N 48°30' W 122°34'0 0.0
2017-Jun-19 22:09N 48°30' W 122°34'0 0.0
2017-Jun-19 21:57N 48°30' W 122°34'0 0.0
2017-Jun-19 21:27N 48°30' W 122°34'0 0.0
2017-Jun-19 20:57N 48°30' W 122°34'0 0.0
2017-Jun-19 20:27N 48°30' W 122°34'0 0.0
2017-Jun-19 19:57N 48°30' W 122°34'0 0.0
2017-Jun-19 19:27N 48°30' W 122°34'0 0.0
2017-Jun-19 18:45N 48°30' W 122°34'0 0.0
2017-Jun-19 18:27N 48°30' W 122°34'0 0.0
2017-Jun-19 17:57N 48°30' W 122°34'0 0.0
2017-Jun-19 17:27N 48°30' W 122°34'0 0.0
2017-Jun-19 16:57N 48°30' W 122°34'0 0.0
2017-Jun-19 16:27N 48°30' W 122°34'0 0.0
2017-Jun-19 15:57N 48°30' W 122°34'0 0.0
2017-Jun-19 15:27N 48°30' W 122°34'0 0.0
2017-Jun-19 14:57N 48°30' W 122°34'0 0.0
2017-Jun-19 14:27N 48°30' W 122°34'0 0.0
2017-Jun-19 13:27N 48°30' W 122°34'0 0.0
2017-Jun-19 12:51N 48°30' W 122°34'0 0.0
2017-Jun-19 12:27N 48°30' W 122°34'0 0.0
2017-Jun-19 11:57N 48°30' W 122°34'0 0.0
2017-Jun-19 11:27N 48°30' W 122°34'0 0.0
2017-Jun-19 10:57N 48°30' W 122°34'0 0.0
2017-Jun-19 10:27N 48°30' W 122°34'0 0.0
2017-Jun-19 09:57N 48°30' W 122°34'0 0.0
2017-Jun-19 09:27N 48°30' W 122°34'0 0.0
2017-Jun-19 08:57N 48°30' W 122°34'0 0.0
2017-Jun-19 08:27N 48°30' W 122°34'0 0.0
2017-Jun-19 07:51N 48°30' W 122°34'0 0.0
2017-Jun-19 07:27N 48°30' W 122°34'0 0.0
2017-Jun-19 06:51N 48°30' W 122°34'0 0.0
2017-Jun-19 06:27N 48°30' W 122°34'0 0.0
2017-Jun-19 05:57N 48°30' W 122°34'0 0.0
2017-Jun-19 05:27N 48°30' W 122°34'0 0.0
2017-Jun-19 04:57N 48°30' W 122°34'0 0.0
2017-Jun-19 04:21N 48°30' W 122°34'0 0.0
2017-Jun-19 03:57N 48°30' W 122°34'0 0.0
2017-Jun-19 03:27N 48°30' W 122°34'0 0.0
2017-Jun-19 02:51N 48°30' W 122°34'0 0.0
2017-Jun-19 02:27N 48°30' W 122°34'0 0.0
2017-Jun-19 01:57N 48°30' W 122°34'0 0.1
2017-Jun-19 01:15N 48°30' W 122°34'0 0.1
2017-Jun-19 00:57N 48°30' W 122°34'0 0.0
2017-Jun-19 00:21N 48°30' W 122°34'0 0.0
2017-Jun-18 23:57N 48°30' W 122°34'0 0.0
2017-Jun-18 23:27N 48°30' W 122°34'0 0.0
2017-Jun-18 22:57N 48°30' W 122°34'0 0.0
2017-Jun-18 22:27N 48°30' W 122°34'0 0.0
2017-Jun-18 21:57N 48°30' W 122°34'0 0.0
2017-Jun-18 21:27N 48°30' W 122°34'0 0.0
2017-Jun-18 20:57N 48°30' W 122°34'0 0.0
2017-Jun-18 20:27N 48°30' W 122°34'0 0.0
2017-Jun-18 19:57N 48°30' W 122°34'0 0.1
2017-Jun-18 19:27N 48°30' W 122°34'0 0.1
2017-Jun-18 18:57N 48°30' W 122°34'0 0.0
2017-Jun-18 18:27N 48°30' W 122°34'0 0.0
2017-Jun-18 17:57N 48°30' W 122°34'0 0.0
2017-Jun-18 17:27N 48°30' W 122°34'0 0.0
2017-Jun-18 16:57N 48°30' W 122°34'0 0.0
2017-Jun-18 16:27N 48°30' W 122°34'0 0.0
2017-Jun-18 15:57N 48°30' W 122°34'0 0.0
2017-Jun-18 15:27N 48°30' W 122°34'0 0.0
2017-Jun-18 14:51N 48°30' W 122°34'0 0.0
2017-Jun-18 13:57N 48°30' W 122°34'0 0.0
2017-Jun-18 13:27N 48°30' W 122°34'0 0.0
2017-Jun-18 12:57N 48°30' W 122°34'0 0.0
2017-Jun-18 12:27N 48°30' W 122°34'0 0.0
2017-Jun-18 11:57N 48°30' W 122°34'0 0.0
2017-Jun-18 11:15N 48°30' W 122°34'0 0.0
2017-Jun-18 10:57N 48°30' W 122°34'0 0.0
2017-Jun-18 10:27N 48°30' W 122°34'0 0.0
2017-Jun-18 09:57N 48°30' W 122°34'0 0.0
2017-Jun-18 09:21N 48°30' W 122°34'0 0.0
2017-Jun-18 08:57N 48°30' W 122°34'0 0.0
2017-Jun-18 08:27N 48°30' W 122°34'0 0.0
2017-Jun-18 07:57N 48°30' W 122°34'0 0.0
2017-Jun-18 07:27N 48°30' W 122°34'0 0.0
2017-Jun-18 06:57N 48°30' W 122°34'0 0.0
2017-Jun-18 06:27N 48°30' W 122°34'0 0.0
2017-Jun-18 05:51N 48°30' W 122°34'0 0.0
2017-Jun-18 05:27N 48°30' W 122°34'0 0.0
2017-Jun-18 04:57N 48°30' W 122°34'0 0.0
2017-Jun-18 04:27N 48°30' W 122°34'0 0.0
2017-Jun-18 03:57N 48°30' W 122°34'0 0.0
2017-Jun-18 03:21N 48°30' W 122°34'0 0.0
2017-Jun-18 02:57N 48°30' W 122°34'0 0.0
2017-Jun-18 02:15N 48°30' W 122°34'0 0.0
2017-Jun-18 01:57N 48°30' W 122°34'0 0.0
2017-Jun-18 01:27N 48°30' W 122°34'0 0.0
2017-Jun-18 00:57N 48°30' W 122°34'0 0.0
2017-Jun-18 00:27N 48°30' W 122°34'0 0.0
2017-Jun-17 23:57N 48°30' W 122°34'0 0.0
2017-Jun-17 23:27N 48°30' W 122°34'0 0.0
2017-Jun-17 22:57N 48°30' W 122°34'0 0.1
2017-Jun-17 22:27N 48°30' W 122°34'0 0.1
2017-Jun-17 21:51N 48°30' W 122°34'0 0.0
2017-Jun-17 21:27N 48°30' W 122°34'0 0.0
2017-Jun-17 20:57N 48°30' W 122°34'0 0.0
2017-Jun-17 20:27N 48°30' W 122°34'0 0.0
2017-Jun-17 19:57N 48°30' W 122°34'0 0.0
2017-Jun-17 19:27N 48°30' W 122°34'0 0.0
2017-Jun-17 18:51N 48°30' W 122°34'0 0.0
2017-Jun-17 18:27N 48°30' W 122°34'0 0.0
2017-Jun-17 17:57N 48°30' W 122°34'0 0.0
2017-Jun-17 17:27N 48°30' W 122°34'0 0.1
2017-Jun-17 16:57N 48°30' W 122°34'0 0.1
2017-Jun-17 16:27N 48°30' W 122°34'0 0.0
2017-Jun-17 15:57N 48°30' W 122°34'0 0.0
2017-Jun-17 15:30N 48°30' W 122°34'1 1.5
2017-Jun-17 15:00N 48°31' W 122°35'4 7.2
2017-Jun-17 14:30N 48°31' W 122°41'10 9.6
2017-Jun-17 13:30N 48°23' W 122°49'612.7
2017-Jun-17 13:00N 48°20' W 122°57'612.2
2017-Jun-17 12:29N 48°17' W 123°05'612.9
2017-Jun-17 12:00N 48°14' W 123°13'611.8
2017-Jun-17 11:30N 48°11' W 123°21'4 8.1
2017-Jun-17 11:00N 48°11' W 123°27'4 8.5
2017-Jun-17 10:30N 48°13' W 123°33'4 8.7
2017-Jun-17 10:00N 48°13' W 123°39'4 8.8
2017-Jun-17 09:31N 48°13' W 123°46'5 9.4
2017-Jun-17 09:00N 48°13' W 123°53'5 9.1
2017-Jun-17 08:30N 48°15' W 123°60'5 9.3
2017-Jun-17 08:00N 48°17' W 124°06'5 9.4
2017-Jun-17 07:30N 48°19' W 124°12'5 9.1
2017-Jun-17 07:00N 48°21' W 124°18'4 8.1
2017-Jun-17 06:30N 48°22' W 124°24'3 6.0
2017-Jun-17 06:01N 48°23' W 124°28'3 6.9
2017-Jun-17 05:30N 48°25' W 124°33'4 7.2
2017-Jun-17 05:00N 48°26' W 124°38'3 6.4
2017-Jun-17 04:30N 48°28' W 124°42'3 6.2
2017-Jun-17 04:01N 48°29' W 124°47'3 6.2
2017-Jun-17 03:30N 48°29' W 124°51'  

Dump ship's entire track history